Time;durP1;ratioP1;P1;durP2;ratioP2;P2;SDS_P1;SDS_P2;PMS_P1;PMS_P2;Temp;Humidity;BMP_temperature;BMP_pressure;BME280_temperature;BME280_humidity;BME280_pressure;Samples;Min_cycle;Max_cycle;Signal;HPM_P1;HPM_P2
2024/01/12 00:00:16;;;;;;;547.70;137.70;;;;;;;4.73;65.53;102791.28;5043445;28;20041;-40
2024/01/12 00:02:42;;;;;;;601.07;127.70;;;;;;;4.80;65.17;102790.38;5041863;28;20402;-42
2024/01/12 00:05:08;;;;;;;410.20;90.40;;;;;;;4.67;65.78;102796.47;5041630;28;20458;-39
2024/01/12 00:07:33;;;;;;;546.90;134.20;;;;;;;4.50;65.89;102801.69;5037534;28;20160;-39
2024/01/12 00:09:59;;;;;;;539.85;133.15;;;;;;;4.66;66.11;102795.63;5040816;28;20148;-40
2024/01/12 00:12:24;;;;;;;538.30;131.50;;;;;;;4.62;65.54;102803.41;5039073;28;19917;-40
2024/01/12 00:14:50;;;;;;;538.47;132.33;;;;;;;4.48;66.19;102799.06;5043849;28;20032;-40
2024/01/12 00:17:18;;;;;;;602.53;130.77;;;;;;;4.56;65.67;102807.78;5039235;28;20784;-40
2024/01/12 00:19:43;;;;;;;597.75;128.90;;;;;;;4.50;66.18;102792.13;5044653;28;20419;-40
2024/01/12 00:22:09;;;;;;;550.67;139.43;;;;;;;4.56;65.97;102793.88;5041740;28;20033;-40
2024/01/12 00:24:34;;;;;;;543.40;133.53;;;;;;;4.63;65.72;102794.72;5045769;28;20037;-41
2024/01/12 00:26:59;;;;;;;543.15;133.95;;;;;;;4.60;65.79;102798.22;5025471;28;20033;-40
2024/01/12 00:29:25;;;;;;;540.40;131.40;;;;;;;4.65;65.47;102795.59;5043542;28;20095;-39
2024/01/12 00:31:50;;;;;;;540.53;131.17;;;;;;;4.58;65.85;102805.16;5041257;28;20495;-40
2024/01/12 00:34:15;;;;;;;601.40;134.00;;;;;;;4.71;65.44;102793.00;5037075;28;20482;-40
2024/01/12 00:36:41;;;;;;;542.30;129.10;;;;;;;4.73;65.49;102799.94;5039489;28;20059;-40
2024/01/12 00:39:07;;;;;;;538.80;134.70;;;;;;;4.69;65.56;102807.78;5040986;28;20037;-39
2024/01/12 00:41:33;;;;;;;536.47;132.13;;;;;;;4.42;66.26;102809.50;5043311;28;19971;-40
2024/01/12 00:43:59;;;;;;;535.93;131.37;;;;;;;3.93;67.01;102807.66;5041348;28;20076;-40
2024/01/12 00:46:25;;;;;;;602.55;132.95;;;;;;;4.01;67.27;102802.47;5035713;28;20415;-39
2024/01/12 00:48:50;;;;;;;544.03;129.38;;;;;;;4.29;66.58;102805.16;5043307;28;20476;-39
2024/01/12 00:51:16;;;;;;;539.45;136.65;;;;;;;4.22;66.82;102804.28;5043021;28;20032;-40
2024/01/12 00:53:41;;;;;;;536.28;132.73;;;;;;;4.22;66.53;102802.53;5042748;28;20486;-40
2024/01/12 00:56:07;;;;;;;535.13;135.50;;;;;;;4.09;67.48;102799.00;5038644;28;20044;-40
2024/01/12 00:58:33;;;;;;;534.30;132.48;;;;;;;4.20;67.07;102813.81;5038697;28;20024;-40
2024/01/12 01:00:58;;;;;;;599.45;127.95;;;;;;;4.21;66.55;102805.13;5041510;28;20397;-40
2024/01/12 01:03:24;;;;;;;543.90;132.15;;;;;;;4.12;66.39;102809.44;5040972;28;20100;-39
2024/01/12 01:05:50;;;;;;;603.40;132.07;;;;;;;4.20;66.51;102798.19;5030904;28;20887;-39
2024/01/12 01:08:16;;;;;;;547.05;137.77;;;;;;;3.92;67.30;102801.56;5020633;28;20103;-39
2024/01/12 01:10:41;;;;;;;538.10;132.10;;;;;;;3.82;67.47;102797.22;5040459;28;20025;-40
2024/01/12 01:13:07;;;;;;;538.07;135.47;;;;;;;3.84;67.94;102798.09;5041818;28;20033;-40
2024/01/12 01:15:32;;;;;;;601.70;131.30;;;;;;;3.75;68.69;102798.91;5040447;28;20409;-40
2024/01/12 01:17:58;;;;;;;602.10;129.30;;;;;;;3.75;68.34;102795.44;5041011;28;20970;-40
2024/01/12 01:20:24;;;;;;;545.83;133.80;;;;;;;3.45;68.55;102797.03;5023420;28;20148;-40
2024/01/12 01:22:49;;;;;;;538.60;134.33;;;;;;;3.79;68.50;102799.78;5039686;28;20036;-40
2024/01/12 01:25:15;;;;;;;533.92;133.80;;;;;;;3.85;68.49;102799.81;5043813;28;20040;-40
2024/01/12 01:27:40;;;;;;;531.93;131.40;;;;;;;3.75;68.13;102796.31;5039862;28;20063;-40
2024/01/12 01:30:07;;;;;;;531.43;131.23;;;;;;;3.78;68.25;102790.25;5039394;28;20062;-40
2024/01/12 01:32:32;;;;;;;597.10;128.00;;;;;;;3.92;68.19;102788.56;5042503;28;20403;-40
2024/01/12 01:34:58;;;;;;;542.93;131.67;;;;;;;3.70;68.44;102786.75;5040902;28;20040;-40
2024/01/12 01:37:23;;;;;;;537.17;138.20;;;;;;;3.87;68.23;102790.25;5018704;28;20049;-39
2024/01/12 01:39:49;;;;;;;534.83;141.18;;;;;;;3.73;68.58;102785.03;5031220;28;19931;-40
2024/01/12 01:42:14;;;;;;;535.07;144.27;;;;;;;3.82;68.16;102786.78;5034964;28;20447;-39
2024/01/12 01:44:39;;;;;;;598.97;131.27;;;;;;;3.77;68.67;102778.06;5035853;28;20449;-40
2024/01/12 01:47:05;;;;;;;594.43;131.87;;;;;;;3.79;68.56;102782.41;5035309;28;20485;-39
2024/01/12 01:49:31;;;;;;;540.70;131.53;;;;;;;3.78;68.79;102778.06;5039607;28;20034;-40
2024/01/12 01:51:57;;;;;;;536.33;135.90;;;;;;;3.68;68.77;102784.13;5039574;28;19977;-40
2024/01/12 01:54:23;;;;;;;600.50;133.20;;;;;;;3.71;68.63;102793.66;5037725;28;20539;-39
2024/01/12 01:56:49;;;;;;;598.30;128.50;;;;;;;3.60;69.09;102791.91;5040663;28;20406;-40
2024/01/12 01:59:15;;;;;;;543.13;133.77;;;;;;;3.81;68.96;102795.47;5027178;28;20032;-39
2024/01/12 02:01:41;;;;;;;532.67;133.27;;;;;;;3.80;68.78;102788.50;5044776;28;20400;-40
2024/01/12 02:04:08;;;;;;;530.63;132.93;;;;;;;3.75;68.58;102796.31;5039995;28;20090;-39
2024/01/12 02:06:34;;;;;;;531.45;133.85;;;;;;;3.86;68.58;102791.13;5036238;28;20041;-39
2024/01/12 02:09:00;;;;;;;529.00;133.90;;;;;;;3.78;67.87;102782.44;5035020;28;20276;-40
2024/01/12 02:11:26;;;;;;;530.85;131.35;;;;;;;3.87;68.19;102790.25;5042754;28;20036;-40
2024/01/12 02:13:51;;;;;;;530.55;132.65;;;;;;;4.01;67.75;102784.25;5041972;28;20037;-40
2024/01/12 02:16:17;;;;;;;531.00;137.95;;;;;;;3.85;68.54;102797.22;5039304;28;20033;-40
2024/01/12 02:18:43;;;;;;;526.60;131.60;;;;;;;3.80;68.52;102796.31;5038546;28;20493;-40
2024/01/12 02:21:08;;;;;;;572.57;135.57;;;;;;;4.02;67.91;102794.66;5038113;28;20840;-40
2024/01/12 02:23:34;;;;;;;507.83;136.77;;;;;;;4.04;67.95;102794.66;5040764;28;20075;-40
2024/01/12 02:26:00;;;;;;;576.60;133.30;;;;;;;3.91;68.10;102792.00;5040399;28;20409;-40
2024/01/12 02:28:25;;;;;;;576.92;130.05;;;;;;;3.57;68.52;102775.41;5039387;28;20467;-39
2024/01/12 02:30:51;;;;;;;516.80;135.90;;;;;;;3.79;68.79;102785.03;5041102;28;20090;-40
2024/01/12 02:33:16;;;;;;;580.17;133.87;;;;;;;3.80;68.81;102788.50;5035770;28;20912;-40
2024/01/12 02:35:42;;;;;;;582.70;133.05;;;;;;;3.79;68.87;102792.84;5017815;28;20405;-40
2024/01/12 02:38:07;;;;;;;516.95;134.90;;;;;;;3.56;68.84;102784.94;5036440;28;20136;-39
2024/01/12 02:40:32;;;;;;;578.27;133.53;;;;;;;3.96;68.65;102784.22;5022522;28;20754;-40
2024/01/12 02:42:58;;;;;;;516.90;136.20;;;;;;;3.90;68.69;102787.66;5040421;28;20033;-40
2024/01/12 02:45:23;;;;;;;504.67;141.60;;;;;;;3.80;68.66;102778.94;5039645;28;20079;-40
2024/01/12 02:47:49;;;;;;;501.20;137.60;;;;;;;3.84;68.48;102778.97;5044001;28;20044;-40
2024/01/12 02:50:14;;;;;;;571.90;134.70;;;;;;;3.74;68.68;102783.28;5035944;28;20988;-40
2024/01/12 02:52:40;;;;;;;509.05;142.30;;;;;;;3.89;68.45;102785.94;5038785;28;20060;-40
2024/01/12 02:55:06;;;;;;;506.00;137.00;;;;;;;3.78;67.87;102779.81;5042211;28;20511;-40
2024/01/12 02:57:31;;;;;;;493.25;136.55;;;;;;;3.77;68.21;102772.88;5039440;28;20544;-40
2024/01/12 02:59:57;;;;;;;491.05;137.60;;;;;;;3.84;68.44;102766.84;5038344;28;20525;-40
2024/01/12 03:02:26;;;;;;;574.35;138.90;;;;;;;3.75;68.66;102767.66;5016869;28;20404;-40
2024/01/12 03:04:51;;;;;;;506.60;135.20;;;;;;;3.42;69.47;102763.19;5038859;28;20024;-40
2024/01/12 03:07:17;;;;;;;501.70;139.45;;;;;;;3.43;69.59;102759.72;5042536;28;20024;-40
2024/01/12 03:09:43;;;;;;;500.77;135.90;;;;;;;3.38;69.72;102756.25;5024399;28;19923;-40
2024/01/12 03:12:08;;;;;;;494.15;149.65;;;;;;;3.35;69.61;102750.16;5035824;28;20406;-39
2024/01/12 03:14:33;;;;;;;572.73;132.93;;;;;;;3.28;69.90;102757.91;5039976;28;20475;-40
2024/01/12 03:16:59;;;;;;;506.73;134.87;;;;;;;3.33;69.71;102750.97;5039706;28;20344;-40
2024/01/12 03:19:24;;;;;;;577.80;138.85;;;;;;;3.45;69.55;102755.38;5035724;28;20476;-40
2024/01/12 03:21:50;;;;;;;510.33;139.67;;;;;;;3.48;69.03;102758.00;5040278;28;20495;-41
2024/01/12 03:24:15;;;;;;;503.30;144.60;;;;;;;3.44;69.57;102753.66;5040634;28;20391;-39
2024/01/12 03:26:41;;;;;;;490.50;136.45;;;;;;;3.75;69.09;102754.66;5045173;28;20052;-40
2024/01/12 03:29:06;;;;;;;574.08;132.02;;;;;;;3.56;69.17;102750.22;5044679;28;20410;-39
2024/01/12 03:31:32;;;;;;;515.13;162.38;;;;;;;3.69;68.85;102751.16;5039079;28;20374;-39
2024/01/12 03:33:58;;;;;;;580.90;135.95;;;;;;;3.69;68.77;102743.34;5038228;28;20387;-39
2024/01/12 03:36:23;;;;;;;510.80;141.90;;;;;;;3.66;68.76;102746.78;5044021;28;20029;-40
2024/01/12 03:38:49;;;;;;;502.85;142.90;;;;;;;3.79;68.69;102739.91;5042004;28;20029;-39
2024/01/12 03:41:15;;;;;;;492.75;143.40;;;;;;;3.76;68.66;102724.25;5038123;28;20037;-40
2024/01/12 03:43:40;;;;;;;576.70;136.80;;;;;;;3.77;68.54;102723.41;5041062;28;20414;-40
2024/01/12 03:46:06;;;;;;;507.03;136.23;;;;;;;3.53;68.49;102727.69;5024406;28;20037;-40
2024/01/12 03:48:32;;;;;;;577.30;133.90;;;;;;;3.30;68.83;102731.03;5043320;28;20960;-40
2024/01/12 03:50:57;;;;;;;507.75;137.05;;;;;;;3.41;69.41;102738.00;5024825;28;20476;-40
2024/01/12 03:53:23;;;;;;;500.30;139.13;;;;;;;3.55;69.03;102725.94;5037642;28;20044;-39
2024/01/12 03:55:48;;;;;;;494.40;136.85;;;;;;;3.62;68.17;102726.84;5040475;28;20061;-40
2024/01/12 03:58:14;;;;;;;491.83;140.30;;;;;;;3.64;68.30;102725.97;5025154;28;20086;-40
2024/01/12 04:00:39;;;;;;;571.60;132.60;;;;;;;3.40;68.79;102725.88;5045393;28;20405;-40
2024/01/12 04:03:05;;;;;;;508.77;137.37;;;;;;;3.41;68.74;102727.59;5041756;28;20110;-40
2024/01/12 04:05:30;;;;;;;581.70;137.55;;;;;;;3.19;68.91;102723.16;5037192;28;20406;-40
2024/01/12 04:07:56;;;;;;;507.83;134.37;;;;;;;2.97;69.55;102716.97;5045657;28;20033;-41
2024/01/12 04:10:21;;;;;;;501.70;139.10;;;;;;;3.24;69.46;102709.31;5040816;28;20039;-40
2024/01/12 04:12:46;;;;;;;489.65;139.10;;;;;;;3.42;68.95;102709.41;5046501;28;20056;-40
2024/01/12 04:15:12;;;;;;;573.35;133.90;;;;;;;3.48;68.56;102693.78;4977005;28;1346480;-40
2024/01/12 04:17:37;;;;;;;577.70;132.10;;;;;;;3.48;68.49;102703.34;5042812;28;20406;-40
2024/01/12 04:20:03;;;;;;;509.45;136.70;;;;;;;3.51;68.88;102706.81;5045158;28;20045;-40
2024/01/12 04:22:29;;;;;;;575.92;133.18;;;;;;;3.73;68.67;102713.81;5043811;28;20402;-40
2024/01/12 04:24:55;;;;;;;515.70;136.40;;;;;;;3.56;68.55;102719.00;5045115;28;20032;-40
2024/01/12 04:27:20;;;;;;;577.80;131.70;;;;;;;3.74;68.27;102718.16;5040865;28;20422;-40
2024/01/12 04:29:46;;;;;;;510.15;137.65;;;;;;;3.89;68.46;102715.59;5028450;28;20616;-40
2024/01/12 04:32:11;;;;;;;579.30;136.47;;;;;;;3.42;68.50;102721.53;5036905;28;20807;-39
2024/01/12 04:34:37;;;;;;;582.55;133.70;;;;;;;3.56;68.70;102717.25;5039602;28;20887;-40
2024/01/12 04:37:03;;;;;;;518.30;140.50;;;;;;;3.51;68.88;102718.97;5037339;28;20250;-39
2024/01/12 04:39:28;;;;;;;581.03;135.55;;;;;;;3.22;69.69;102717.13;5039602;28;20408;-42
2024/01/12 04:41:54;;;;;;;513.95;135.95;;;;;;;3.44;69.22;102717.19;5041258;28;20036;-40
2024/01/12 04:44:19;;;;;;;506.00;147.20;;;;;;;3.37;69.43;102720.66;5043300;28;20035;-40
2024/01/12 04:46:45;;;;;;;488.30;138.60;;;;;;;3.25;69.67;102722.34;5027605;28;20041;-42
2024/01/12 04:49:10;;;;;;;490.20;139.87;;;;;;;3.32;69.46;102726.72;5041975;28;20245;-40
2024/01/12 04:51:36;;;;;;;488.65;138.48;;;;;;;3.18;69.99;102728.38;5039181;28;20111;-40
2024/01/12 04:54:01;;;;;;;488.58;138.52;;;;;;;3.17;70.30;102734.44;5044525;28;20064;-40
2024/01/12 04:56:26;;;;;;;488.95;142.70;;;;;;;3.56;69.61;102738.06;5043762;28;20029;-40
2024/01/12 04:58:52;;;;;;;487.65;138.15;;;;;;;3.58;69.46;102736.34;5044325;28;20029;-40
2024/01/12 05:01:18;;;;;;;567.50;132.90;;;;;;;3.52;69.12;102731.13;5041796;28;20420;-40
2024/01/12 05:03:43;;;;;;;503.35;136.55;;;;;;;3.62;68.83;102719.88;5037568;28;20036;-40
2024/01/12 05:06:09;;;;;;;574.50;133.30;;;;;;;3.54;69.12;102726.81;5038481;28;20738;-40
2024/01/12 05:08:36;;;;;;;513.30;143.07;;;;;;;3.02;69.59;102720.50;5034176;28;20304;-40
2024/01/12 05:11:01;;;;;;;495.95;139.15;;;;;;;3.12;69.92;102710.13;5038006;28;20040;-40
2024/01/12 05:13:28;;;;;;;490.73;142.80;;;;;;;3.40;69.66;102720.69;5033931;28;20051;-40
2024/01/12 05:15:53;;;;;;;491.80;142.32;;;;;;;3.45;69.41;102726.75;5045242;28;19923;-39
2024/01/12 05:18:18;;;;;;;571.15;134.70;;;;;;;3.33;69.35;102720.66;5040999;28;20447;-40
2024/01/12 05:20:44;;;;;;;576.15;132.05;;;;;;;3.34;68.97;102717.19;5043299;28;20433;-40
2024/01/12 05:23:09;;;;;;;509.83;136.23;;;;;;;3.24;69.27;102714.53;5043701;28;20029;-40
2024/01/12 05:25:35;;;;;;;496.20;139.90;;;;;;;3.57;69.00;102707.72;5038293;28;20499;-40
2024/01/12 05:28:00;;;;;;;572.38;132.07;;;;;;;3.49;68.85;102711.16;5040370;28;20462;-40
2024/01/12 05:30:26;;;;;;;507.93;140.90;;;;;;;3.59;68.61;102712.06;5042605;28;20471;-39
2024/01/12 05:32:51;;;;;;;494.95;137.55;;;;;;;3.61;68.59;102715.53;5039478;28;20194;-40
2024/01/12 05:35:17;;;;;;;573.50;132.95;;;;;;;3.37;68.45;102718.06;5038920;28;20496;-40
2024/01/12 05:37:42;;;;;;;508.55;143.05;;;;;;;3.71;68.39;102729.47;5040736;28;19924;-40
2024/01/12 05:40:08;;;;;;;574.25;131.95;;;;;;;3.61;67.94;102738.97;5034495;28;20413;-40
2024/01/12 05:42:33;;;;;;;506.80;134.80;;;;;;;3.30;68.86;102736.25;5038955;28;20030;-40
2024/01/12 05:44:59;;;;;;;574.30;132.80;;;;;;;3.18;69.04;102730.97;5039108;28;20502;-40
2024/01/12 05:47:24;;;;;;;508.35;138.32;;;;;;;3.43;68.68;102742.38;5041052;28;20462;-40
2024/01/12 05:49:50;;;;;;;491.70;137.40;;;;;;;3.37;68.54;102749.28;5042436;28;20595;-40
2024/01/12 05:52:15;;;;;;;574.05;133.23;;;;;;;3.13;69.25;102743.06;5040968;28;20413;-40
2024/01/12 05:54:41;;;;;;;506.70;139.27;;;;;;;3.44;68.33;102741.53;5039208;28;20131;-39
2024/01/12 05:57:06;;;;;;;489.80;138.15;;;;;;;3.26;68.75;102741.44;5036695;28;20660;-40
2024/01/12 05:59:32;;;;;;;572.35;135.50;;;;;;;2.93;69.40;102738.66;5037520;28;20485;-39
2024/01/12 06:01:58;;;;;;;577.03;132.07;;;;;;;3.03;69.89;102736.94;5042937;28;20405;-40
2024/01/12 06:04:24;;;;;;;508.60;139.15;;;;;;;3.15;69.66;102725.75;5042808;28;20060;-40
2024/01/12 06:06:49;;;;;;;501.80;139.90;;;;;;;2.95;69.45;102736.91;5033960;28;20037;-40
2024/01/12 06:09:15;;;;;;;573.37;133.13;;;;;;;3.00;69.93;102719.59;5038938;28;20560;-40
2024/01/12 06:11:42;;;;;;;499.08;131.35;;;;;;;2.73;70.05;102731.56;5040423;28;20047;-40
2024/01/12 06:14:08;;;;;;;504.15;142.40;;;;;;;3.04;69.68;102736.97;5037429;28;20025;-41
2024/01/12 06:16:33;;;;;;;489.60;141.43;;;;;;;2.93;69.81;102729.97;5039966;28;20393;-40
2024/01/12 06:18:59;;;;;;;570.60;130.90;;;;;;;2.94;69.84;102724.78;5039668;28;20463;-39
2024/01/12 06:21:25;;;;;;;576.13;132.10;;;;;;;3.13;69.59;102722.28;5039610;28;20449;-40
2024/01/12 06:23:50;;;;;;;580.67;130.27;;;;;;;3.38;69.17;102722.41;5039572;28;20480;-40
2024/01/12 06:26:16;;;;;;;511.40;135.30;;;;;;;3.44;68.67;102720.69;5039812;28;20087;-39
2024/01/12 06:28:42;;;;;;;501.15;137.75;;;;;;;3.58;68.31;102707.72;5041974;28;20123;-40
2024/01/12 06:31:07;;;;;;;571.60;135.40;;;;;;;3.20;68.47;102711.03;5036366;28;20424;-40
2024/01/12 06:33:34;;;;;;;510.15;146.75;;;;;;;3.23;68.27;102718.88;5038301;28;20025;-41
2024/01/12 06:36:00;;;;;;;497.80;137.50;;;;;;;3.30;67.69;102715.41;5039727;28;24874;-40
2024/01/12 06:38:26;;;;;;;490.80;145.70;;;;;;;3.17;68.07;102708.44;5033551;28;20059;-40
2024/01/12 06:40:51;;;;;;;489.20;140.25;;;;;;;3.08;68.51;102709.25;5039558;28;20716;-40
2024/01/12 06:43:17;;;;;;;487.58;141.38;;;;;;;3.45;67.87;102711.13;5041278;28;20120;-40
2024/01/12 06:45:43;;;;;;;486.17;136.35;;;;;;;3.44;67.97;102714.59;5045099;28;20049;-40
2024/01/12 06:48:09;;;;;;;484.50;135.90;;;;;;;3.45;67.62;102711.13;5044700;28;20048;-40
2024/01/12 06:50:35;;;;;;;488.60;140.88;;;;;;;3.38;67.69;102701.59;5045298;28;20048;-40
2024/01/12 06:53:04;;;;;;;485.67;138.35;;;;;;;3.29;67.70;102702.41;5045204;28;20044;-40
2024/01/12 06:55:29;;;;;;;485.27;140.32;;;;;;;2.89;68.52;102708.28;5029487;28;20033;-40
2024/01/12 06:57:55;;;;;;;565.95;131.30;;;;;;;3.01;68.01;102697.94;5021239;28;20546;-40
2024/01/12 07:00:20;;;;;;;501.98;141.40;;;;;;;3.12;68.00;102689.31;5044137;28;20041;-40
2024/01/12 07:02:46;;;;;;;487.80;138.25;;;;;;;2.98;68.05;102686.66;5036209;28;20166;-41
2024/01/12 07:05:13;;;;;;;569.40;133.40;;;;;;;3.19;67.97;102683.28;5042640;28;20421;-40
2024/01/12 07:07:41;;;;;;;505.95;143.05;;;;;;;3.28;67.80;102680.72;5041597;28;20029;-40
2024/01/12 07:10:08;;;;;;;485.90;137.70;;;;;;;3.34;67.87;102665.13;5024051;28;20558;-39
2024/01/12 07:12:33;;;;;;;490.00;142.32;;;;;;;3.47;67.69;102665.16;5036168;28;20287;-40
2024/01/12 07:14:59;;;;;;;488.05;138.40;;;;;;;3.42;67.55;102657.34;5041297;28;19952;-40
2024/01/12 07:17:24;;;;;;;486.65;140.45;;;;;;;3.13;67.56;102660.72;5040201;28;20022;-40
2024/01/12 07:19:49;;;;;;;567.80;129.70;;;;;;;3.32;67.65;102656.44;5049839;28;20417;-40
2024/01/12 07:22:15;;;;;;;505.77;143.93;;;;;;;3.49;67.18;102673.84;5039664;28;20083;-40
2024/01/12 07:24:40;;;;;;;573.27;131.43;;;;;;;3.42;67.05;102672.97;5045374;28;20424;-40
2024/01/12 07:27:06;;;;;;;504.10;136.95;;;;;;;3.53;66.87;102675.63;5042090;28;20037;-40
2024/01/12 07:29:32;;;;;;;491.20;139.40;;;;;;;3.44;66.43;102660.84;5042580;28;20067;-39
2024/01/12 07:31:58;;;;;;;487.95;140.35;;;;;;;3.44;66.96;102659.94;5044430;28;20116;-40
2024/01/12 07:34:23;;;;;;;489.05;139.35;;;;;;;3.19;67.75;102662.47;5044282;28;20756;-39
2024/01/12 07:36:49;;;;;;;570.33;135.17;;;;;;;3.22;67.42;102662.50;5040773;28;20505;-40
2024/01/12 07:39:14;;;;;;;505.20;139.30;;;;;;;2.70;67.69;102661.34;5042149;28;20060;-40
2024/01/12 07:41:42;;;;;;;489.83;139.70;;;;;;;2.98;67.64;102669.31;5046216;28;20052;-40
2024/01/12 07:44:07;;;;;;;487.60;139.05;;;;;;;2.74;67.70;102680.44;5045607;28;20201;-40
2024/01/12 07:46:33;;;;;;;486.85;141.63;;;;;;;3.03;67.97;102675.41;5046034;28;20495;-40
2024/01/12 07:48:59;;;;;;;567.80;134.25;;;;;;;3.18;67.85;102678.94;5037327;28;20411;-40
2024/01/12 07:51:25;;;;;;;503.00;139.75;;;;;;;3.25;67.80;102659.03;5045771;28;20036;-40
2024/01/12 07:53:51;;;;;;;489.17;140.00;;;;;;;3.29;67.45;102656.44;5039270;28;20082;-40
2024/01/12 07:56:17;;;;;;;486.98;138.02;;;;;;;3.26;67.47;102648.59;5041085;28;20502;-39
2024/01/12 07:58:42;;;;;;;486.88;144.55;;;;;;;3.30;66.88;102652.97;5045533;28;19912;-40
2024/01/12 08:01:14;;;;;;;568.60;133.63;;;;;;;3.08;67.41;102656.38;5041337;28;20411;-40
2024/01/12 08:03:41;;;;;;;577.53;132.30;;;;;;;3.20;67.38;102651.22;5025617;28;20421;-39
2024/01/12 08:06:06;;;;;;;577.37;130.17;;;;;;;3.21;67.31;102652.94;5040930;28;20411;-40
2024/01/12 08:08:32;;;;;;;579.65;131.40;;;;;;;3.32;67.09;102642.59;5043084;28;20422;-40
2024/01/12 08:10:57;;;;;;;514.50;133.40;;;;;;;3.42;66.94;102653.88;5046100;28;20077;-40
2024/01/12 08:13:24;;;;;;;572.13;130.07;;;;;;;3.66;66.81;102653.94;5044018;28;20413;-39
2024/01/12 08:15:50;;;;;;;522.42;132.40;;;;;;;3.71;66.28;102650.47;5045170;28;20037;-41
2024/01/12 08:18:16;;;;;;;502.90;133.50;;;;;;;3.55;66.73;102644.38;5045342;28;20037;-40
2024/01/12 08:20:41;;;;;;;487.95;137.15;;;;;;;3.43;66.16;102648.69;5044000;28;20035;-40
2024/01/12 08:23:07;;;;;;;488.02;138.73;;;;;;;3.72;66.24;102649.59;5050489;28;19908;-40
2024/01/12 08:25:32;;;;;;;488.20;143.90;;;;;;;3.33;66.10;102647.78;5043745;28;20072;-40
2024/01/12 08:27:57;;;;;;;568.20;132.90;;;;;;;3.57;65.84;102646.09;5042822;28;20497;-40
2024/01/12 08:30:23;;;;;;;502.17;138.10;;;;;;;3.59;65.96;102644.38;5048258;28;20688;-40
2024/01/12 08:32:48;;;;;;;490.50;138.40;;;;;;;3.44;66.64;102649.53;5048241;28;20037;-41
2024/01/12 08:35:13;;;;;;;487.20;138.38;;;;;;;3.68;66.53;102642.66;5029641;28;20329;-40
2024/01/12 08:37:39;;;;;;;501.67;134.83;;;;;;;3.73;66.46;102635.72;5045576;28;20064;-40
2024/01/12 08:40:05;;;;;;;484.58;140.40;;;;;;;3.66;66.22;102630.50;5048102;28;20430;-40
2024/01/12 08:42:32;;;;;;;568.80;134.80;;;;;;;3.77;65.59;102637.47;5045249;28;20899;-40
2024/01/12 08:44:57;;;;;;;576.50;133.20;;;;;;;3.47;66.32;102640.03;5043881;28;20783;-40
2024/01/12 08:47:22;;;;;;;507.40;138.07;;;;;;;3.77;65.81;102637.47;5046966;28;20037;-40
2024/01/12 08:49:48;;;;;;;574.90;134.73;;;;;;;3.88;65.64;102632.28;5043824;28;20454;-40
2024/01/12 08:52:13;;;;;;;580.85;136.05;;;;;;;3.75;65.94;102632.25;5045277;28;20384;-40
2024/01/12 08:54:39;;;;;;;509.30;135.30;;;;;;;3.61;65.88;102629.63;5048758;28;20652;-40
2024/01/12 08:57:04;;;;;;;574.40;135.67;;;;;;;3.74;65.79;102627.91;5043825;28;20426;-40
2024/01/12 08:59:30;;;;;;;507.95;137.45;;;;;;;3.56;65.73;102633.94;5044885;28;20260;-40
2024/01/12 09:01:57;;;;;;;573.60;132.87;;;;;;;3.77;66.02;102632.25;5041820;28;20485;-39
2024/01/12 09:04:23;;;;;;;507.07;136.47;;;;;;;3.64;65.91;102633.97;5026688;28;20068;-40
2024/01/12 09:06:48;;;;;;;487.40;136.60;;;;;;;3.29;65.88;102633.00;5046028;28;20455;-40
2024/01/12 09:09:14;;;;;;;570.00;132.80;;;;;;;3.65;66.18;102618.34;5040124;28;20389;-40
2024/01/12 09:11:39;;;;;;;497.73;132.70;;;;;;;3.46;66.34;102621.78;5042376;28;20040;-40
2024/01/12 09:14:05;;;;;;;488.33;138.63;;;;;;;3.60;66.31;102601.00;5047880;28;20028;-41
2024/01/12 09:16:30;;;;;;;487.88;142.80;;;;;;;3.71;65.96;102608.78;5044470;28;20123;-40
2024/01/12 09:18:56;;;;;;;567.45;132.25;;;;;;;3.60;65.94;102609.66;5043622;28;20488;-40
2024/01/12 09:21:24;;;;;;;575.40;131.30;;;;;;;3.78;65.94;102597.53;5044015;28;20401;-40
2024/01/12 09:23:49;;;;;;;576.40;131.20;;;;;;;3.65;66.00;102607.94;5043639;28;20841;-40
2024/01/12 09:26:15;;;;;;;507.43;134.27;;;;;;;3.69;65.85;102602.75;5048889;28;20590;-40
2024/01/12 09:28:41;;;;;;;489.83;139.83;;;;;;;3.80;65.88;102593.19;5043910;28;20073;-40
2024/01/12 09:31:08;;;;;;;486.42;142.13;;;;;;;3.64;65.73;102590.59;5045764;28;19920;-40
2024/01/12 09:33:33;;;;;;;479.20;140.75;;;;;;;3.68;65.33;102598.41;5045730;28;20003;-40
2024/01/12 09:35:59;;;;;;;567.05;135.70;;;;;;;3.65;66.17;102597.53;5045490;28;20452;-40
2024/01/12 09:38:24;;;;;;;500.60;140.90;;;;;;;3.62;65.76;102587.09;5046483;28;20040;-40
2024/01/12 09:40:51;;;;;;;491.92;138.98;;;;;;;3.46;66.59;102582.75;5041485;28;20029;-40
2024/01/12 09:43:21;;;;;;;477.40;138.45;;;;;;;3.40;65.98;102575.78;5045206;28;20560;-41
2024/01/12 09:45:49;;;;;;;565.88;134.07;;;;;;;3.60;66.10;102568.00;5026765;28;20437;-39
2024/01/12 09:48:15;;;;;;;488.10;135.20;;;;;;;3.38;66.03;102571.47;5044570;28;20557;-40
2024/01/12 09:50:41;;;;;;;486.27;143.63;;;;;;;3.73;65.79;102560.19;5051125;28;20033;-40
2024/01/12 09:53:06;;;;;;;565.90;132.32;;;;;;;3.75;65.82;102555.88;5048291;28;20567;-40
2024/01/12 09:55:32;;;;;;;494.85;138.55;;;;;;;3.65;65.34;102555.88;5051432;28;20547;-40
2024/01/12 09:57:58;;;;;;;568.58;132.02;;;;;;;3.59;65.86;102540.25;5043119;28;20403;-40
2024/01/12 10:00:26;;;;;;;576.10;135.48;;;;;;;3.71;65.67;102547.19;5034151;28;20410;-40
2024/01/12 10:02:52;;;;;;;505.95;135.30;;;;;;;3.68;65.61;102555.00;5047227;28;20029;-41
2024/01/12 10:05:18;;;;;;;488.90;144.70;;;;;;;3.70;65.75;102562.81;5041238;28;20472;-41
2024/01/12 10:07:43;;;;;;;481.88;142.98;;;;;;;3.61;65.88;102554.13;5049082;28;19919;-40
2024/01/12 10:10:09;;;;;;;565.10;136.30;;;;;;;3.51;66.05;102563.66;5048777;28;20398;-40
2024/01/12 10:12:34;;;;;;;571.10;132.30;;;;;;;3.70;65.75;102557.63;5027276;28;20415;-40
2024/01/12 10:15:03;;;;;;;573.87;132.23;;;;;;;3.75;65.75;102566.28;5045567;28;20397;-40
2024/01/12 10:17:30;;;;;;;575.10;133.05;;;;;;;3.89;65.45;102572.34;5039531;28;20449;-40
2024/01/12 10:19:56;;;;;;;506.30;138.15;;;;;;;3.59;66.07;102581.88;5046181;28;20224;-40
2024/01/12 10:22:21;;;;;;;489.05;139.07;;;;;;;3.63;66.06;102578.44;5044701;28;20127;-40
2024/01/12 10:25:04;;;;;;;480.15;138.82;;;;;;;3.68;66.25;102580.19;5047161;28;20521;-40
2024/01/12 10:27:31;;;;;;;565.60;133.80;;;;;;;3.59;66.25;102579.28;5043728;28;20470;-40
2024/01/12 10:29:57;;;;;;;575.65;147.85;;;;;;;3.79;65.59;102579.28;5033704;28;20481;-39
2024/01/12 10:32:23;;;;;;;501.75;137.48;;;;;;;3.52;66.59;102585.38;5015866;28;19935;-39
2024/01/12 10:34:50;;;;;;;486.02;139.68;;;;;;;3.81;66.39;102572.34;5025381;28;20039;-39
2024/01/12 10:37:18;;;;;;;565.53;130.98;;;;;;;3.73;66.08;102568.00;5045812;28;20496;-40
2024/01/12 10:39:46;;;;;;;497.95;138.50;;;;;;;4.02;65.66;102560.19;5045971;28;20386;-40
2024/01/12 10:42:12;;;;;;;477.25;144.65;;;;;;;3.87;65.89;102558.47;5042051;28;20063;-40
2024/01/12 10:44:42;;;;;;;565.57;134.90;;;;;;;3.85;65.27;102557.63;5040943;28;20414;-39
2024/01/12 10:47:19;;;;;;;570.50;129.30;;;;;;;4.10;65.09;102553.22;5043258;28;20436;-40
2024/01/12 10:49:59;;;;;;;574.60;134.23;;;;;;;4.07;65.34;102541.94;5039856;28;20561;-40
2024/01/12 10:52:42;;;;;;;503.08;140.38;;;;;;;4.24;64.83;102540.19;5041040;28;20036;-40
2024/01/12 10:55:14;;;;;;;483.42;139.27;;;;;;;4.34;64.89;102542.75;5043750;28;20404;-40